createdAt,value
2022-09-17T00:01:51.990Z,11.20
2022-09-17T00:04:21.752Z,11.23
2022-09-17T00:06:54.212Z,11.18
2022-09-17T00:09:23.922Z,11.22
2022-09-17T00:11:53.557Z,11.13
2022-09-17T00:14:23.255Z,11.10
2022-09-17T00:16:52.921Z,10.97
2022-09-17T00:19:25.428Z,10.85
2022-09-17T00:21:57.720Z,10.89
2022-09-17T00:24:27.530Z,10.81
2022-09-17T00:26:57.212Z,10.92
2022-09-17T00:29:27.061Z,10.81
2022-09-17T00:31:56.759Z,10.82
2022-09-17T00:34:26.407Z,10.80
2022-09-17T00:36:58.722Z,10.87
2022-09-17T00:39:28.372Z,10.73
2022-09-17T00:41:58.074Z,10.91
2022-09-17T00:44:48.211Z,10.97
2022-09-17T00:47:22.750Z,11.16
2022-09-17T00:49:56.622Z,10.98
2022-09-17T00:52:33.119Z,11.04
2022-09-17T00:55:10.752Z,11.19
2022-09-17T00:57:40.913Z,10.97
2022-09-17T01:00:13.230Z,10.99
2022-09-17T01:02:43.691Z,11.25
2022-09-17T01:05:15.186Z,11.37
2022-09-17T01:08:01.311Z,11.06
2022-09-17T01:11:05.872Z,11.02
2022-09-17T01:13:44.918Z,10.81
2022-09-17T01:16:22.715Z,10.89
2022-09-17T01:19:09.150Z,10.87
2022-09-17T01:21:51.397Z,10.88
2022-09-17T01:24:58.690Z,10.75
2022-09-17T01:27:58.253Z,10.79
2022-09-17T01:30:58.392Z,10.70
2022-09-17T01:33:34.840Z,10.63
2022-09-17T01:36:17.625Z,10.66
2022-09-17T01:38:55.971Z,10.69
2022-09-17T01:41:36.091Z,10.68
2022-09-17T01:44:11.558Z,10.70
2022-09-17T01:46:49.419Z,10.79
2022-09-17T01:49:19.816Z,10.78
2022-09-17T01:51:53.311Z,10.67
2022-09-17T01:54:28.166Z,10.36
2022-09-17T01:57:02.992Z,10.48
2022-09-17T01:59:37.280Z,10.59
2022-09-17T02:02:14.839Z,10.69
2022-09-17T02:04:50.622Z,10.55
2022-09-17T02:07:23.627Z,10.70
2022-09-17T02:10:02.165Z,10.77
2022-09-17T02:12:34.865Z,10.62
2022-09-17T02:15:08.584Z,10.73
2022-09-17T02:17:45.601Z,10.84
2022-09-17T02:20:20.863Z,10.77
2022-09-17T02:22:58.404Z,10.70
2022-09-17T02:25:31.527Z,10.57
2022-09-17T02:28:06.198Z,10.70
2022-09-17T02:30:36.000Z,10.65
2022-09-17T02:33:11.999Z,10.64
2022-09-17T02:35:43.671Z,10.74
2022-09-17T02:38:13.812Z,10.65
2022-09-17T02:40:51.621Z,10.60
2022-09-17T02:43:29.277Z,10.42
2022-09-17T02:46:17.316Z,10.40
2022-09-17T02:49:19.373Z,10.27
2022-09-17T02:52:00.110Z,10.39
2022-09-17T02:54:34.835Z,10.22
2022-09-17T02:57:19.047Z,10.38
2022-09-17T02:59:56.490Z,10.25
2022-09-17T03:02:31.541Z,10.33
2022-09-17T03:05:05.127Z,10.38
2022-09-17T03:07:35.027Z,10.48
2022-09-17T03:10:04.718Z,10.40
2022-09-17T03:12:34.782Z,10.40
2022-09-17T03:15:04.457Z,10.32
2022-09-17T03:17:34.473Z,10.42
2022-09-17T03:20:07.393Z,10.19
2022-09-17T03:22:37.375Z,10.22
2022-09-17T03:25:08.039Z,10.33
2022-09-17T03:27:37.838Z,10.33
2022-09-17T03:30:08.700Z,10.13
2022-09-17T03:32:38.449Z,10.12
2022-09-17T03:35:11.446Z,10.01
2022-09-17T03:37:41.196Z,9.96
2022-09-17T03:40:11.633Z,10.03
2022-09-17T03:42:41.433Z,10.20
2022-09-17T03:45:12.162Z,10.22
2022-09-17T03:47:41.887Z,10.15
2022-09-17T03:50:14.317Z,10.11
2022-09-17T03:52:45.888Z,10.20
2022-09-17T03:55:16.091Z,10.08
2022-09-17T03:57:46.215Z,10.06
2022-09-17T04:00:17.756Z,10.00
2022-09-17T04:02:47.883Z,9.91
2022-09-17T04:05:20.253Z,10.02
2022-09-17T04:07:49.908Z,9.78
2022-09-17T04:10:19.626Z,9.80
2022-09-17T04:12:49.288Z,9.79
2022-09-17T04:15:19.214Z,9.69
2022-09-17T04:17:49.003Z,9.86
2022-09-17T04:20:21.292Z,9.74
2022-09-17T04:22:50.970Z,9.80
2022-09-17T04:25:20.958Z,10.03
2022-09-17T04:27:50.758Z,9.94
2022-09-17T04:30:20.862Z,9.90
2022-09-17T04:32:50.554Z,9.92
2022-09-17T04:35:22.800Z,9.97
2022-09-17T04:37:56.199Z,9.90
2022-09-17T04:40:27.282Z,9.77
2022-09-17T04:42:59.570Z,9.88
2022-09-17T04:45:29.722Z,9.90
2022-09-17T04:47:59.552Z,9.88
2022-09-17T04:50:31.825Z,9.87
2022-09-17T04:53:01.554Z,9.96
2022-09-17T04:55:31.414Z,9.80
2022-09-17T04:58:01.129Z,9.89
2022-09-17T05:00:31.104Z,10.11
2022-09-17T05:03:00.792Z,10.04
2022-09-17T05:05:33.130Z,9.84
2022-09-17T05:08:02.975Z,9.78
2022-09-17T05:10:32.670Z,10.05
2022-09-17T05:13:02.409Z,10.04
2022-09-17T05:15:32.139Z,10.01
2022-09-17T05:18:01.829Z,9.93
2022-09-17T05:20:34.140Z,9.89
2022-09-17T05:23:03.911Z,10.20
2022-09-17T05:25:33.629Z,10.13
2022-09-17T05:28:04.000Z,10.01
2022-09-17T05:30:34.053Z,9.92
2022-09-17T05:33:04.673Z,9.89
2022-09-17T05:35:38.116Z,10.14
2022-09-17T05:38:09.012Z,10.03
2022-09-17T05:40:38.975Z,10.01
2022-09-17T05:43:09.906Z,10.04
2022-09-17T05:45:40.188Z,10.18
2022-09-17T05:48:12.406Z,10.32
2022-09-17T05:50:44.985Z,10.14
2022-09-17T05:53:16.095Z,10.04
2022-09-17T05:55:45.902Z,10.12
2022-09-17T05:58:17.068Z,10.10
2022-09-17T06:00:49.379Z,10.03
2022-09-17T06:03:20.917Z,10.12
2022-09-17T06:05:59.025Z,10.18
2022-09-17T06:08:31.885Z,10.24
2022-09-17T06:11:02.632Z,10.33
2022-09-17T06:13:32.604Z,10.17
2022-09-17T06:16:02.939Z,10.22
2022-09-17T06:18:34.277Z,10.13
2022-09-17T06:21:07.596Z,10.35
2022-09-17T06:23:38.001Z,10.35
2022-09-17T06:26:09.143Z,10.28
2022-09-17T06:28:41.885Z,10.28
2022-09-17T06:31:13.374Z,10.21
2022-09-17T06:33:43.599Z,10.25
2022-09-17T06:36:16.002Z,10.15
2022-09-17T06:38:46.268Z,10.44
2022-09-17T06:41:17.150Z,10.34
2022-09-17T06:43:47.050Z,10.36
2022-09-17T06:46:16.927Z,10.48
2022-09-17T06:48:46.618Z,10.46
2022-09-17T06:51:18.947Z,10.30
2022-09-17T06:53:48.976Z,10.31
2022-09-17T06:56:19.245Z,10.30
2022-09-17T06:58:48.954Z,10.17
2022-09-17T07:01:18.651Z,10.16
2022-09-17T07:03:49.891Z,10.26
2022-09-17T07:06:22.167Z,10.27
2022-09-17T07:08:51.890Z,10.14
2022-09-17T07:11:21.634Z,10.18
2022-09-17T07:13:51.407Z,10.27
2022-09-17T07:16:21.173Z,10.24
2022-09-17T07:18:51.011Z,10.04
2022-09-17T07:21:23.301Z,10.14
2022-09-17T07:23:54.518Z,10.15
2022-09-17T07:26:24.206Z,10.24
2022-09-17T07:28:54.006Z,10.23
2022-09-17T07:31:23.765Z,10.10
2022-09-17T07:33:53.616Z,10.02
2022-09-17T07:36:25.902Z,9.95
2022-09-17T07:38:55.540Z,9.97
2022-09-17T07:41:25.351Z,9.90
2022-09-17T07:43:56.504Z,9.89
2022-09-17T07:46:26.478Z,9.89
2022-09-17T07:48:56.174Z,9.87
2022-09-17T07:51:30.900Z,9.93
2022-09-17T07:54:02.491Z,9.87
2022-09-17T07:56:32.346Z,9.96
2022-09-17T07:59:02.033Z,9.94
2022-09-17T08:01:31.868Z,9.95
2022-09-17T08:04:01.547Z,9.92
2022-09-17T08:06:34.460Z,10.12
2022-09-17T08:09:04.168Z,10.13
2022-09-17T08:14:29.172Z,10.11
2022-09-17T08:16:59.536Z,10.29
2022-09-17T08:19:29.947Z,10.21
2022-09-17T08:22:02.333Z,10.16
2022-09-17T08:24:32.330Z,10.14
2022-09-17T08:27:01.997Z,10.10
2022-09-17T08:29:35.079Z,10.16
2022-09-17T08:32:05.773Z,10.21
2022-09-17T08:34:36.892Z,10.28
2022-09-17T08:37:09.171Z,10.19
2022-09-17T08:39:39.090Z,10.18
2022-09-17T08:42:17.777Z,10.13
2022-09-17T08:44:52.097Z,10.37
2022-09-17T08:47:29.527Z,10.60
2022-09-17T08:50:01.371Z,10.87
2022-09-17T08:52:56.034Z,10.94
2022-09-17T08:55:35.333Z,11.22
2022-09-17T08:58:25.183Z,11.21
2022-09-17T09:01:01.333Z,11.28
2022-09-17T09:03:44.648Z,11.78
2022-09-17T09:06:16.413Z,12.05
2022-09-17T09:08:53.062Z,12.12
2022-09-17T09:11:28.359Z,11.98
2022-09-17T09:14:03.335Z,11.79
2022-09-17T09:16:36.256Z,11.51
2022-09-17T09:19:22.844Z,11.17
2022-09-17T09:22:04.770Z,11.16
2022-09-17T09:24:44.173Z,11.14
2022-09-17T09:27:20.692Z,11.45
2022-09-17T09:30:02.169Z,11.46
2022-09-17T09:32:45.451Z,11.38
2022-09-17T09:35:21.467Z,11.27
2022-09-17T09:37:58.680Z,11.32
2022-09-17T09:40:40.031Z,11.43
2022-09-17T09:43:20.525Z,11.30
2022-09-17T09:46:22.331Z,11.14
2022-09-17T09:49:08.109Z,11.23
2022-09-17T09:51:50.079Z,11.38
2022-09-17T09:54:44.470Z,11.51
2022-09-17T09:57:19.273Z,11.61
2022-09-17T09:59:48.932Z,11.77
2022-09-17T10:02:18.614Z,11.79
2022-09-17T10:04:52.742Z,11.95
2022-09-17T10:07:23.233Z,12.03
2022-09-17T10:10:11.706Z,11.97
2022-09-17T10:12:43.899Z,12.07
2022-09-17T10:15:29.068Z,12.16
2022-09-17T10:18:14.842Z,12.28
2022-09-17T10:20:52.768Z,12.34
2022-09-17T10:23:23.842Z,12.51
2022-09-17T10:25:55.686Z,12.44
2022-09-17T10:28:37.750Z,12.41
2022-09-17T10:31:10.785Z,12.47
2022-09-17T10:33:54.471Z,12.53
2022-09-17T10:36:43.394Z,12.51
2022-09-17T10:39:34.921Z,12.50
2022-09-17T10:42:06.926Z,12.53
2022-09-17T10:44:40.187Z,12.89
2022-09-17T10:47:16.276Z,13.39
2022-09-17T10:49:50.392Z,14.01
2022-09-17T10:52:28.475Z,14.64
2022-09-17T10:55:15.343Z,14.97
2022-09-17T10:58:03.879Z,15.02
2022-09-17T11:00:48.063Z,15.64
2022-09-17T11:03:46.349Z,15.88
2022-09-17T11:06:40.672Z,15.91
2022-09-17T11:09:25.908Z,16.03
2022-09-17T11:12:09.108Z,15.54
2022-09-17T11:14:52.385Z,15.07
2022-09-17T11:17:54.591Z,15.56
2022-09-17T11:20:45.080Z,15.45
2022-09-17T11:23:32.331Z,14.94
2022-09-17T11:26:08.410Z,15.77
2022-09-17T11:28:55.603Z,15.61
2022-09-17T11:31:35.617Z,15.44
2022-09-17T11:34:28.360Z,15.81
2022-09-17T11:37:07.724Z,15.47
2022-09-17T11:39:47.029Z,15.13
2022-09-17T11:42:22.401Z,14.82
2022-09-17T11:44:57.436Z,14.68
2022-09-17T11:47:32.333Z,14.60
2022-09-17T11:50:06.275Z,14.24
2022-09-17T11:52:43.050Z,13.93
2022-09-17T11:55:23.768Z,13.73
2022-09-17T11:57:59.560Z,13.48
2022-09-17T12:00:32.632Z,13.32
2022-09-17T12:03:06.906Z,13.45
2022-09-17T12:05:43.016Z,13.46
2022-09-17T12:08:21.083Z,13.40
2022-09-17T12:10:57.019Z,13.35
2022-09-17T12:13:36.274Z,13.18
2022-09-17T12:16:17.304Z,13.06
2022-09-17T12:18:55.729Z,13.01
2022-09-17T12:21:30.645Z,13.19
2022-09-17T12:24:10.577Z,13.49
2022-09-17T12:27:04.746Z,13.79
2022-09-17T12:29:46.395Z,14.18
2022-09-17T12:32:35.850Z,14.06
2022-09-17T12:35:17.417Z,13.88
2022-09-17T12:37:59.399Z,13.44
2022-09-17T12:40:39.292Z,13.26
2022-09-17T12:43:34.199Z,13.42
2022-09-17T12:46:17.557Z,13.67
2022-09-17T12:49:07.567Z,14.03
2022-09-17T12:51:55.874Z,13.93
2022-09-17T12:54:52.945Z,14.16
2022-09-17T12:57:35.987Z,14.30
2022-09-17T13:00:09.475Z,14.35
2022-09-17T13:02:44.144Z,14.01
2022-09-17T13:05:36.141Z,13.69
2022-09-17T13:08:48.226Z,13.46
2022-09-17T13:11:49.705Z,13.43
2022-09-17T13:14:31.743Z,13.06
2022-09-17T13:17:08.998Z,13.08
2022-09-17T13:19:46.749Z,13.04
2022-09-17T13:22:20.329Z,13.24
2022-09-17T13:25:03.809Z,13.53
2022-09-17T13:27:37.791Z,13.35
2022-09-17T13:30:12.289Z,13.44
2022-09-17T13:32:59.690Z,13.54
2022-09-17T13:35:53.874Z,13.53
2022-09-17T13:38:25.354Z,13.58
2022-09-17T13:41:15.289Z,13.43
2022-09-17T13:43:49.652Z,13.18
2022-09-17T13:46:25.621Z,13.29
2022-09-17T13:49:02.651Z,13.23
2022-09-17T13:51:53.812Z,13.33
2022-09-17T13:54:27.258Z,13.45
2022-09-17T13:57:11.110Z,13.47
2022-09-17T13:59:41.542Z,13.70
2022-09-17T14:02:40.952Z,13.79
2022-09-17T14:05:32.514Z,13.50
2022-09-17T14:08:31.624Z,13.42
2022-09-17T14:11:04.507Z,13.52
2022-09-17T14:13:55.588Z,13.51
2022-09-17T14:16:50.589Z,13.42
2022-09-17T14:19:51.065Z,13.54
2022-09-17T14:22:28.232Z,13.57
2022-09-17T14:24:58.338Z,13.46
2022-09-17T14:27:48.109Z,13.43
2022-09-17T14:30:21.210Z,13.88
2022-09-17T14:32:57.756Z,13.97
2022-09-17T14:35:36.327Z,13.99
2022-09-17T14:38:13.779Z,14.01
2022-09-17T14:40:47.568Z,13.93
2022-09-17T14:43:25.008Z,13.95
2022-09-17T14:45:56.494Z,14.01
2022-09-17T14:48:34.282Z,13.93
2022-09-17T14:51:32.042Z,13.75
2022-09-17T14:54:17.937Z,13.72
2022-09-17T14:56:54.866Z,13.51
2022-09-17T14:59:44.857Z,13.48
2022-09-17T15:02:30.735Z,13.44
2022-09-17T15:05:00.551Z,13.40
2022-09-17T15:07:33.082Z,13.48
2022-09-17T15:10:16.529Z,13.31
2022-09-17T15:12:48.347Z,13.37
2022-09-17T15:15:26.514Z,13.34
2022-09-17T15:17:57.263Z,13.42
2022-09-17T15:20:31.455Z,13.58
2022-09-17T15:23:12.990Z,13.73
2022-09-17T15:25:44.956Z,13.55
2022-09-17T15:28:32.524Z,13.49
2022-09-17T15:31:02.579Z,13.33
2022-09-17T15:33:34.443Z,13.22
2022-09-17T15:36:12.121Z,13.15
2022-09-17T15:38:45.201Z,13.03
2022-09-17T15:41:35.345Z,12.97
2022-09-17T15:44:29.770Z,12.96
2022-09-17T15:47:30.581Z,12.97
2022-09-17T15:50:14.700Z,13.26
2022-09-17T15:52:44.807Z,13.32
2022-09-17T15:55:33.170Z,13.41
2022-09-17T15:58:04.125Z,13.29
2022-09-17T16:00:34.344Z,13.27
2022-09-17T16:03:53.917Z,13.21
2022-09-17T16:06:41.491Z,13.20
2022-09-17T16:09:39.279Z,13.15
2022-09-17T16:12:15.107Z,13.00
2022-09-17T16:14:52.893Z,12.99
2022-09-17T16:17:38.293Z,12.90
2022-09-17T16:20:16.942Z,12.83
2022-09-17T16:22:48.221Z,12.75
2022-09-17T16:25:18.729Z,12.84
2022-09-17T16:27:55.008Z,12.75
2022-09-17T16:30:26.392Z,12.76
2022-09-17T16:32:56.603Z,12.78
2022-09-17T16:35:27.832Z,12.78
2022-09-17T16:37:59.268Z,12.77
2022-09-17T16:40:31.373Z,12.96
2022-09-17T16:43:06.053Z,12.84
2022-09-17T16:45:35.774Z,12.81
2022-09-17T16:48:05.852Z,12.77
2022-09-17T16:50:36.075Z,12.78
2022-09-17T16:53:06.574Z,12.72
2022-09-17T16:55:36.285Z,12.73
2022-09-17T16:58:08.588Z,12.63
2022-09-17T17:00:38.942Z,12.61
2022-09-17T17:03:08.853Z,12.55
2022-09-17T17:05:40.443Z,12.51
2022-09-17T17:08:11.658Z,12.54
2022-09-17T17:10:41.685Z,12.53
2022-09-17T17:13:13.938Z,12.48
2022-09-17T17:15:44.075Z,12.51
2022-09-17T17:18:13.872Z,12.51
2022-09-17T17:20:43.560Z,12.52
2022-09-17T17:23:13.804Z,12.57
2022-09-17T17:25:43.469Z,12.16
2022-09-17T17:28:15.791Z,11.87
2022-09-17T17:30:50.341Z,11.37
2022-09-17T17:33:20.069Z,11.34
2022-09-17T17:35:49.760Z,11.21
2022-09-17T17:38:20.391Z,11.21
2022-09-17T17:40:50.185Z,11.30
2022-09-17T17:43:22.472Z,11.28
2022-09-17T17:45:52.170Z,11.12
2022-09-17T17:48:21.775Z,11.09
2022-09-17T17:50:55.900Z,11.08
2022-09-17T17:53:26.474Z,11.00
2022-09-17T17:56:00.685Z,10.98
2022-09-17T17:58:33.210Z,11.01
2022-09-17T18:01:02.949Z,10.90
2022-09-17T18:03:32.641Z,10.94
2022-09-17T18:06:02.329Z,10.85
2022-09-17T18:08:32.106Z,10.98
2022-09-17T18:11:04.222Z,11.19
2022-09-17T18:13:36.787Z,11.19
2022-09-17T18:16:09.220Z,11.19
2022-09-17T18:18:44.460Z,11.09
2022-09-17T18:21:17.054Z,11.09
2022-09-17T18:23:47.491Z,11.02
2022-09-17T18:26:18.706Z,11.14
2022-09-17T18:28:51.517Z,11.27
2022-09-17T18:31:25.498Z,11.14
2022-09-17T18:33:58.558Z,11.20
2022-09-17T18:36:29.509Z,11.03
2022-09-17T18:39:56.414Z,10.90
2022-09-17T18:41:52.822Z,10.93
2022-09-17T18:44:25.320Z,11.04
2022-09-17T18:46:55.153Z,10.87
2022-09-17T18:49:24.909Z,11.11
2022-09-17T18:51:54.627Z,11.06
2022-09-17T18:54:24.331Z,11.14
2022-09-17T18:56:54.017Z,11.08
2022-09-17T18:59:26.290Z,11.02
2022-09-17T19:01:55.985Z,11.02
2022-09-17T19:04:25.932Z,11.12
2022-09-17T19:06:55.492Z,11.09
2022-09-17T19:09:25.506Z,11.15
2022-09-17T19:11:55.210Z,10.98
2022-09-17T19:14:27.545Z,10.96
2022-09-17T19:16:57.989Z,10.90
2022-09-17T19:19:27.725Z,10.87
2022-09-17T19:21:57.488Z,10.88
2022-09-17T19:24:27.195Z,10.88
2022-09-17T19:26:56.898Z,10.77
2022-09-17T19:29:29.277Z,10.59
2022-09-17T19:31:59.018Z,10.60
2022-09-17T19:34:28.720Z,10.46
2022-09-17T19:36:58.427Z,10.45
2022-09-17T19:39:28.114Z,10.43
2022-09-17T19:42:00.442Z,10.15
2022-09-17T19:44:32.719Z,9.92
2022-09-17T19:47:02.566Z,9.99
2022-09-17T19:49:32.229Z,9.99
2022-09-17T19:52:01.904Z,9.87
2022-09-17T19:54:31.696Z,9.89
2022-09-17T19:57:01.404Z,9.87
2022-09-17T19:59:33.598Z,9.75
2022-09-17T20:02:03.262Z,9.81
2022-09-17T20:04:33.033Z,9.64
2022-09-17T20:07:04.577Z,9.79
2022-09-17T20:09:34.603Z,9.73
2022-09-17T20:12:04.834Z,9.77
2022-09-17T20:14:37.151Z,9.83
2022-09-17T20:17:06.809Z,9.88
2022-09-17T20:19:36.465Z,9.72
2022-09-17T20:22:06.189Z,9.73
2022-09-17T20:24:36.592Z,9.88
2022-09-17T20:27:06.570Z,9.80
2022-09-17T20:29:38.809Z,9.80
2022-09-17T20:32:08.598Z,9.95
2022-09-17T20:34:38.217Z,9.89
2022-09-17T20:37:13.484Z,9.88
2022-09-17T20:39:43.631Z,9.96
2022-09-17T20:42:13.437Z,9.95
2022-09-17T20:44:45.714Z,9.74
2022-09-17T20:47:15.394Z,9.40
2022-09-17T20:49:45.444Z,9.34
2022-09-17T20:52:19.084Z,9.14
2022-09-17T20:54:50.661Z,9.20
2022-09-17T20:57:20.308Z,9.54
2022-09-17T20:59:55.794Z,9.78
2022-09-17T21:02:25.544Z,9.81
2022-09-17T21:04:56.059Z,9.51
2022-09-17T21:07:25.996Z,9.61
2022-09-17T21:09:55.640Z,9.54
2022-09-17T21:12:27.621Z,9.31
2022-09-17T21:15:00.076Z,9.49
2022-09-17T21:17:29.667Z,9.50
2022-09-17T21:19:59.330Z,9.35
2022-09-17T21:22:29.026Z,9.32
2022-09-17T21:24:59.541Z,9.36
2022-09-17T21:27:29.191Z,9.33
2022-09-17T21:30:02.642Z,9.47
2022-09-17T21:32:32.342Z,9.45
2022-09-17T21:35:01.965Z,9.46
2022-09-17T21:37:31.667Z,9.47
2022-09-17T21:40:01.326Z,9.77
2022-09-17T21:42:31.231Z,9.88
2022-09-17T21:45:03.617Z,9.93
2022-09-17T21:47:34.996Z,10.02
2022-09-17T21:50:04.707Z,9.89
2022-09-17T21:52:34.619Z,10.00
2022-09-17T21:55:04.300Z,10.11
2022-09-17T21:57:33.929Z,10.14
2022-09-17T22:00:09.107Z,10.20
2022-09-17T22:02:38.849Z,10.16
2022-09-17T22:05:08.681Z,10.09
2022-09-17T22:07:38.973Z,10.08
2022-09-17T22:10:14.353Z,10.18
2022-09-17T22:12:44.110Z,10.06
2022-09-17T22:15:16.392Z,9.95
2022-09-17T22:17:46.071Z,10.12
2022-09-17T22:20:15.771Z,9.90
2022-09-17T22:22:45.534Z,9.89
2022-09-17T22:25:15.267Z,10.08
2022-09-17T22:28:03.963Z,10.20
2022-09-17T22:30:38.160Z,10.08
2022-09-17T22:33:08.007Z,10.12
2022-09-17T22:35:37.805Z,10.20
2022-09-17T22:38:07.533Z,10.12
2022-09-17T22:40:38.835Z,9.86
2022-09-17T22:43:08.537Z,9.75
2022-09-17T22:45:40.827Z,9.83
2022-09-17T22:48:10.528Z,9.82
2022-09-17T22:50:40.250Z,9.80
2022-09-17T22:53:09.937Z,9.88
2022-09-17T22:55:39.913Z,9.86
2022-09-17T22:58:09.730Z,9.75
2022-09-17T23:00:43.309Z,9.67
2022-09-17T23:03:13.071Z,9.72
2022-09-17T23:05:42.797Z,9.78
2022-09-17T23:08:12.524Z,9.93
2022-09-17T23:10:42.778Z,9.93
2022-09-17T23:13:13.835Z,9.92
2022-09-17T23:15:46.189Z,9.98
2022-09-17T23:18:16.051Z,10.02
2022-09-17T23:20:45.880Z,10.01
2022-09-17T23:23:15.608Z,10.03
2022-09-17T23:25:45.295Z,9.98
2022-09-17T23:28:15.111Z,9.82
2022-09-17T23:30:47.481Z,9.83
2022-09-17T23:33:17.595Z,9.95
2022-09-17T23:35:47.285Z,9.94
2022-09-17T23:38:16.993Z,9.86
2022-09-17T23:40:47.206Z,10.01
2022-09-17T23:43:16.939Z,9.94
2022-09-17T23:45:49.382Z,10.04
2022-09-17T23:48:19.032Z,10.16
2022-09-17T23:50:49.165Z,9.90
2022-09-17T23:53:18.852Z,9.93
2022-09-17T23:55:49.226Z,10.02
2022-09-17T23:58:19.299Z,9.99
